This is the latest recevied weather packets stored in our database for station/object EW2310. If no packets are shown the sender has not sent any weather packets the latest 10 day(s).
| Time | Temp. | Humidity | Pressure | Rain* | Wind** | Luminosity | Snow |
|---|---|---|---|---|---|---|---|
| 1777487443 | 17.78° C | 63% | 1013.4 hPa | 0 mm | - | 0 W/m² | - |
| 1777486542 | 18.33° C | 62% | 1013.4 hPa | 0 mm | - | 0 W/m² | - |
| 1777485345 | 18.33° C | 60% | 1013.6 hPa | 0 mm | - | 5 W/m² | - |
| 1777485045 | 18.89° C | 60% | 1013.6 hPa | 0 mm | - | 9 W/m² | - |
| 1777483242 | 19.44° C | 59% | 1013.7 hPa | 0 mm | - | 49 W/m² | - |
| 1777482642 | 19.44° C | 60% | 1013.7 hPa | 0 mm | - | 62 W/m² | - |
| 1777480842 | 20.56° C | 44% | 1013.6 hPa | 0 mm | - | 28 W/m² | - |
| 1777477842 | 21.11° C | 43% | 1013.4 hPa | 0 mm | - | 167 W/m² | - |
| 1777476345 | 22.22° C | 37% | 1013.3 hPa | 0 mm | - | 190 W/m² | - |
| 1777473042 | 23.33° C | 32% | 1012.9 hPa | 0 mm | - | 596 W/m² | - |
| 1777472142 | 22.22° C | 34% | 1012.9 hPa | 0 mm | - | 640 W/m² | - |
| 1777470642 | 21.67° C | 38% | 1013.6 hPa | 0 mm | - | 707 W/m² | - |
| 1777468842 | 22.22° C | 36% | 1013.9 hPa | 0 mm | - | 784 W/m² | - |
| 1777465842 | 22.78° C | 31% | 1014.1 hPa | 0 mm | - | 877 W/m² | - |
| 1777464942 | 22.22° C | 34% | 1014.2 hPa | 0 mm | - | 998 W/m² | - |
| 1777461642 | 22.22° C | 44% | 1014.4 hPa | 0 mm | - | 926 W/m² | - |
| 1777457442 | 22.22° C | 37% | 1014.5 hPa | 0 mm | - | 974 W/m² | - |
| 1777456242 | 22.78° C | 37% | 1014.4 hPa | 0 mm | - | 911 W/m² | - |
| 1777454142 | 22.22° C | 51% | 1014.3 hPa | 0 mm | - | 833 W/m² | - |
| 1777450542 | 21.11° C | 37% | 1014 hPa | 0 mm | - | 594 W/m² | - |
| 1777450242 | 21.67° C | 35% | 1014 hPa | 0 mm | - | 605 W/m² | - |
| 1777449042 | 20.56° C | 40% | 1013.9 hPa | 0 mm | - | 624 W/m² | - |
| 1777447842 | 20.56° C | 45% | 1013.7 hPa | 0 mm | - | 640 W/m² | - |
| 1777441842 | 16.67° C | 60% | 1013.9 hPa | 0 mm | - | 265 W/m² | - |
| 1777440342 | 15.56° C | 56% | 1013.9 hPa | 0 mm | - | 185 W/m² | - |
* Rain latest hour (hover to see other rain measurements)
** Current wind speed in m/s (hover to see current wind gust speed)